Time;durP1;ratioP1;P1;durP2;ratioP2;P2;SDS_P1;SDS_P2;PMS_P1;PMS_P2;Temp;Humidity;BMP_temperature;BMP_pressure;BME280_temperature;BME280_humidity;BME280_pressure;Samples;Min_cycle;Max_cycle;Signal;HPM_P1;HPM_P2
2022/03/05 00:01:48;;;;;;;;;;;1.00;78.70;;;;;;5057547;28;20360;-78
2022/03/05 00:04:15;;;;;;;;;;;0.90;78.60;;;;;;5034863;28;19952;-78
2022/03/05 00:06:41;;;;;;;;;;;0.80;78.70;;;;;;5030650;28;19917;-78
2022/03/05 00:09:06;;;;;;;;;;;0.70;78.80;;;;;;5044114;28;20273;-78
2022/03/05 00:11:32;;;;;;;;;;;0.70;79.10;;;;;;5053856;28;19924;-78
2022/03/05 00:13:57;;;;;;;;;;;0.70;79.00;;;;;;5042004;28;19908;-79
2022/03/05 00:16:23;;;;;;;;;;;0.60;79.30;;;;;;5044250;28;19927;-78
2022/03/05 00:18:49;;;;;;;;;;;0.60;79.20;;;;;;5055233;28;19978;-78
2022/03/05 00:21:15;;;;;;;;;;;0.60;79.20;;;;;;5091460;22;20338;-83
2022/03/05 00:23:41;;;;;;;;;;;0.70;79.40;;;;;;5091718;28;19916;-84
2022/03/05 00:26:06;;;;;;;;;;;0.70;79.20;;;;;;5068433;28;19921;-84
2022/03/05 00:28:32;;;;;;;;;;;0.70;79.30;;;;;;5058493;28;19913;-83
2022/03/05 00:31:00;;;;;;;;;;;0.70;79.20;;;;;;5064017;28;19919;-83
2022/03/05 00:33:25;;;;;;;;;;;0.70;79.00;;;;;;5052176;28;20055;-83
2022/03/05 00:35:51;;;;;;;;;;;0.70;78.80;;;;;;5056870;28;20010;-84
2022/03/05 00:38:16;;;;;;;;;;;0.60;79.00;;;;;;5060318;28;19917;-83
2022/03/05 00:40:42;;;;;;;;;;;0.60;79.20;;;;;;5060343;28;19913;-84
2022/03/05 00:43:07;;;;;;;;;;;0.50;79.40;;;;;;5071522;28;19980;-84
2022/03/05 00:45:33;;;;;;;;;;;0.40;79.50;;;;;;5064736;28;19927;-83
2022/03/05 00:47:58;;;;;;;;;;;0.50;79.70;;;;;;5053186;28;19979;-84
2022/03/05 00:50:24;;;;;;;;;;;0.50;79.50;;;;;;5068950;28;19956;-83
2022/03/05 00:52:49;;;;;;;;;;;0.60;79.60;;;;;;5057017;28;19913;-83
2022/03/05 00:55:15;;;;;;;;;;;0.40;79.40;;;;;;5060372;28;19913;-83
2022/03/05 00:57:40;;;;;;;;;;;0.40;79.60;;;;;;5064468;28;19916;-83
2022/03/05 01:00:08;;;;;;;;;;;0.40;79.50;;;;;;5073291;28;19917;-84
2022/03/05 01:02:34;;;;;;;;;;;0.40;79.80;;;;;;5063719;28;19932;-83
2022/03/05 01:04:59;;;;;;;;;;;0.40;79.50;;;;;;5079307;28;19916;-83
2022/03/05 01:07:25;;;;;;;;;;;0.40;79.60;;;;;;5086216;28;19943;-81
2022/03/05 01:09:50;;;;;;;;;;;0.40;79.60;;;;;;5081891;28;19916;-82
2022/03/05 01:12:16;;;;;;;;;;;0.40;79.50;;;;;;5070498;28;19985;-83
2022/03/05 01:14:41;;;;;;;;;;;0.40;79.40;;;;;;5057088;28;19936;-84
2022/03/05 01:17:06;;;;;;;;;;;0.50;79.50;;;;;;5072790;28;19939;-83
2022/03/05 01:19:32;;;;;;;;;;;0.40;79.50;;;;;;5071162;28;20019;-83
2022/03/05 01:21:57;;;;;;;;;;;0.50;79.30;;;;;;5071248;28;19964;-83
2022/03/05 01:24:23;;;;;;;;;;;0.40;79.40;;;;;;5075415;28;19921;-83
2022/03/05 01:26:48;;;;;;;;;;;0.30;79.80;;;;;;5070490;28;19912;-83
2022/03/05 01:29:14;;;;;;;;;;;0.30;80.10;;;;;;5066740;28;19924;-82
2022/03/05 01:31:40;;;;;;;;;;;0.30;80.10;;;;;;5061753;28;19959;-83
2022/03/05 01:34:05;;;;;;;;;;;0.20;79.70;;;;;;5056961;28;19912;-82
2022/03/05 01:36:30;;;;;;;;;;;0.30;79.70;;;;;;5061284;28;20002;-84
2022/03/05 01:38:56;;;;;;;;;;;0.20;79.50;;;;;;5066167;28;20346;-82
2022/03/05 01:41:21;;;;;;;;;;;0.20;79.80;;;;;;5066352;28;19921;-83
2022/03/05 01:43:51;;;;;;;;;;;0.30;79.40;;;;;;5077307;28;19920;-83
2022/03/05 01:46:49;;;;;;;;;;;0.20;79.70;;;;;;5061099;28;19916;-84
2022/03/05 01:49:15;;;;;;;;;;;0.20;79.70;;;;;;5060505;28;19913;-83
2022/03/05 01:51:41;;;;;;;;;;;0.20;79.80;;;;;;5071709;28;19962;-82
2022/03/05 01:54:07;;;;;;;;;;;0.20;80.20;;;;;;5077865;28;19916;-83
2022/03/05 01:56:33;;;;;;;;;;;0.10;80.00;;;;;;5057860;28;20008;-83
2022/03/05 01:58:59;;;;;;;;;;;0.10;80.40;;;;;;5071255;28;19913;-82
2022/03/05 02:01:26;;;;;;;;;;;0.00;80.70;;;;;;5097439;28;19936;-82
2022/03/05 02:03:51;;;;;;;;;;;0.10;80.40;;;;;;5105576;28;19938;-82
2022/03/05 02:06:18;;;;;;;;;;;0.10;80.20;;;;;;5072336;28;19912;-83
2022/03/05 02:08:44;;;;;;;;;;;0.10;80.30;;;;;;5072046;28;19923;-83
2022/03/05 02:11:09;;;;;;;;;;;0.00;80.00;;;;;;5064520;28;19921;-84
2022/03/05 02:13:36;;;;;;;;;;;0.00;79.70;;;;;;5058003;28;19913;-83
2022/03/05 02:16:02;;;;;;;;;;;0.00;79.80;;;;;;5053531;28;19920;-83
2022/03/05 02:18:27;;;;;;;;;;;0.00;79.90;;;;;;5062323;28;19912;-82
2022/03/05 02:20:53;;;;;;;;;;;0.00;80.10;;;;;;5073049;28;19935;-83
2022/03/05 02:23:18;;;;;;;;;;;0.00;80.40;;;;;;5067501;28;20326;-83
2022/03/05 02:25:54;;;;;;;;;;;0.00;80.30;;;;;;5060574;28;20020;-84
2022/03/05 02:28:20;;;;;;;;;;;0.00;80.20;;;;;;5074711;28;19905;-81
2022/03/05 02:30:46;;;;;;;;;;;0.00;80.20;;;;;;5091624;28;19917;-83
2022/03/05 02:33:12;;;;;;;;;;;0.00;80.40;;;;;;5084393;28;19916;-81
2022/03/05 02:35:38;;;;;;;;;;;0.00;80.40;;;;;;5078780;28;19935;-79
2022/03/05 02:38:03;;;;;;;;;;;0.00;80.40;;;;;;5085679;28;19923;-83
2022/03/05 02:40:29;;;;;;;;;;;0.00;80.00;;;;;;5080093;28;20290;-83
2022/03/05 02:42:54;;;;;;;;;;;0.00;80.00;;;;;;5082217;28;19912;-83
2022/03/05 02:45:20;;;;;;;;;;;0.00;80.30;;;;;;5072995;28;20378;-83
2022/03/05 02:47:45;;;;;;;;;;;0.00;80.20;;;;;;5063026;28;19932;-83
2022/03/05 02:50:10;;;;;;;;;;;0.00;80.40;;;;;;5065227;28;20371;-84
2022/03/05 02:52:40;;;;;;;;;;;0.00;80.80;;;;;;5070918;28;19924;-82
2022/03/05 02:55:05;;;;;;;;;;;0.00;80.30;;;;;;5067641;28;20379;-83
2022/03/05 02:57:31;;;;;;;;;;;-3276.70;80.20;;;;;;5057539;28;19913;-84
2022/03/05 02:59:56;;;;;;;;;;;-3276.70;80.30;;;;;;5060643;28;20382;-85
2022/03/05 03:02:22;;;;;;;;;;;-3276.70;80.20;;;;;;5068752;28;19921;-83
2022/03/05 03:04:48;;;;;;;;;;;-3276.60;80.20;;;;;;5089324;28;20352;-83
2022/03/05 03:07:13;;;;;;;;;;;-3276.60;80.10;;;;;;5057071;28;20334;-83
2022/03/05 03:09:38;;;;;;;;;;;-3276.60;80.10;;;;;;5057316;28;19919;-83
2022/03/05 03:12:04;;;;;;;;;;;-3276.60;80.10;;;;;;5072398;28;20383;-83
2022/03/05 03:14:30;;;;;;;;;;;-3276.60;80.00;;;;;;5062112;28;19936;-83
2022/03/05 03:16:55;;;;;;;;;;;-3276.70;80.20;;;;;;5054727;28;20228;-83
2022/03/05 03:19:20;;;;;;;;;;;-3276.70;80.00;;;;;;5064043;28;19913;-82
2022/03/05 03:21:46;;;;;;;;;;;-3276.60;80.30;;;;;;5057262;28;19925;-83
2022/03/05 03:24:12;;;;;;;;;;;-3276.60;80.10;;;;;;5071644;28;19924;-84
2022/03/05 03:26:37;;;;;;;;;;;-3276.70;80.30;;;;;;5070397;28;20339;-83
2022/03/05 03:29:03;;;;;;;;;;;-3276.60;79.90;;;;;;5069887;28;19912;-85
2022/03/05 03:31:28;;;;;;;;;;;-3276.60;80.00;;;;;;5066989;28;19913;-83
2022/03/05 03:33:54;;;;;;;;;;;-3276.60;80.00;;;;;;5087083;28;19965;-83
2022/03/05 03:36:19;;;;;;;;;;;-3276.60;80.10;;;;;;5083523;28;20312;-84
2022/03/05 03:38:45;;;;;;;;;;;-3276.60;79.90;;;;;;5078802;28;20563;-84
2022/03/05 03:41:10;;;;;;;;;;;-3276.60;79.90;;;;;;5075726;28;19908;-83
2022/03/05 03:43:35;;;;;;;;;;;-3276.50;79.80;;;;;;5060239;28;19920;-83
2022/03/05 03:46:01;;;;;;;;;;;-3276.50;79.60;;;;;;5081842;28;20005;-84
2022/03/05 03:48:26;;;;;;;;;;;-3276.60;79.20;;;;;;5095119;28;20370;-83
2022/03/05 03:50:52;;;;;;;;;;;-3276.50;78.90;;;;;;5076348;28;19913;-82
2022/03/05 03:53:18;;;;;;;;;;;-3276.40;79.20;;;;;;5080356;28;19927;-82
2022/03/05 03:55:43;;;;;;;;;;;-3276.40;79.30;;;;;;5073849;28;19923;-83
2022/03/05 03:58:08;;;;;;;;;;;-3276.40;79.20;;;;;;5070873;28;19913;-83
2022/03/05 04:00:34;;;;;;;;;;;-3276.40;79.60;;;;;;5068577;28;20379;-84
2022/03/05 04:02:59;;;;;;;;;;;-3276.20;79.80;;;;;;5067424;28;20449;-84
2022/03/05 04:05:25;;;;;;;;;;;-3276.30;80.20;;;;;;5073939;28;20414;-83
2022/03/05 04:10:35;;;;;;;;;;;-3276.40;80.10;;;;;;5070382;28;20346;-83
2022/03/05 04:13:00;;;;;;;;;;;-3276.30;80.00;;;;;;5071132;28;20010;-84
2022/03/05 04:15:26;;;;;;;;;;;-3276.30;80.30;;;;;;5073325;28;19970;-83
2022/03/05 04:17:51;;;;;;;;;;;-3276.30;80.10;;;;;;5069017;28;19954;-83
2022/03/05 04:20:17;;;;;;;;;;;-3276.20;79.80;;;;;;5074380;28;19916;-82
2022/03/05 04:22:42;;;;;;;;;;;-3276.30;80.30;;;;;;5059987;28;19970;-84
2022/03/05 04:25:08;;;;;;;;;;;-3276.40;79.90;;;;;;5071365;28;19930;-83
2022/03/05 04:27:34;;;;;;;;;;;-3276.40;79.70;;;;;;5068473;28;19955;-84
2022/03/05 04:29:59;;;;;;;;;;;-3276.30;79.50;;;;;;5072531;28;19920;-83
2022/03/05 04:32:25;;;;;;;;;;;-3276.30;79.50;;;;;;5059737;28;20021;-83
2022/03/05 04:34:50;;;;;;;;;;;-3276.30;79.60;;;;;;5071517;28;20007;-84
2022/03/05 04:37:16;;;;;;;;;;;-3276.30;79.70;;;;;;5056983;28;19927;-83
2022/03/05 04:39:42;;;;;;;;;;;-3276.30;79.90;;;;;;5058074;28;19928;-83
2022/03/05 04:42:07;;;;;;;;;;;-3276.30;79.80;;;;;;5056458;28;20402;-83
2022/03/05 04:44:33;;;;;;;;;;;-3276.30;80.00;;;;;;5061372;28;19982;-84
2022/03/05 04:46:58;;;;;;;;;;;-3276.30;79.80;;;;;;5073337;28;19959;-84
2022/03/05 04:49:24;;;;;;;;;;;-3276.20;79.90;;;;;;5064418;28;19913;-82
2022/03/05 04:51:50;;;;;;;;;;;-3276.20;79.90;;;;;;5085158;28;19944;-81
2022/03/05 04:54:16;;;;;;;;;;;-3276.20;80.10;;;;;;5066880;28;19963;-86
2022/03/05 04:56:41;;;;;;;;;;;-3276.20;79.90;;;;;;5076970;28;19919;-84
2022/03/05 04:59:07;;;;;;;;;;;-3276.10;79.60;;;;;;5085310;28;19939;-83
2022/03/05 05:01:32;;;;;;;;;;;-3276.10;79.70;;;;;;5073755;28;19924;-84
2022/03/05 05:03:58;;;;;;;;;;;-3276.10;79.80;;;;;;5082202;28;19923;-83
2022/03/05 05:06:24;;;;;;;;;;;-3276.10;80.00;;;;;;5078601;28;19957;-83
2022/03/05 05:08:50;;;;;;;;;;;-3276.10;80.10;;;;;;5087824;28;20010;-83
2022/03/05 05:11:16;;;;;;;;;;;-3276.10;80.10;;;;;;5084579;28;19917;-81
2022/03/05 05:13:41;;;;;;;;;;;-3276.10;80.00;;;;;;5086301;28;20271;-83
2022/03/05 05:16:07;;;;;;;;;;;-3276.00;80.00;;;;;;5077029;28;19904;-82
2022/03/05 05:18:33;;;;;;;;;;;-3276.10;80.10;;;;;;5085282;28;19932;-82
2022/03/05 05:20:59;;;;;;;;;;;-3276.10;80.10;;;;;;5104034;28;19923;-81
2022/03/05 05:23:24;;;;;;;;;;;-3276.00;80.00;;;;;;5070023;28;20303;-82
2022/03/05 05:25:49;;;;;;;;;;;-3276.10;80.10;;;;;;5051464;28;19921;-82
2022/03/05 05:28:16;;;;;;;;;;;-3276.10;80.10;;;;;;5051566;28;19913;-83
2022/03/05 05:30:41;;;;;;;;;;;-3276.10;80.00;;;;;;5057357;28;19919;-83
2022/03/05 05:33:07;;;;;;;;;;;-3276.10;80.10;;;;;;5055302;28;19912;-84
2022/03/05 05:35:32;;;;;;;;;;;-3276.10;80.10;;;;;;5064028;28;19912;-83
2022/03/05 05:37:58;;;;;;;;;;;-3276.10;80.00;;;;;;5063595;28;19919;-84
2022/03/05 05:40:23;;;;;;;;;;;-3276.10;79.60;;;;;;5063615;28;19977;-83
2022/03/05 05:42:49;;;;;;;;;;;-3276.00;79.90;;;;;;5053440;28;19936;-83
2022/03/05 05:45:14;;;;;;;;;;;-3276.00;80.20;;;;;;5062018;28;19919;-83
2022/03/05 05:47:40;;;;;;;;;;;-3276.00;80.50;;;;;;5052004;28;19928;-83
2022/03/05 05:50:06;;;;;;;;;;;-3276.00;80.60;;;;;;5050632;28;19919;-84
2022/03/05 05:52:32;;;;;;;;;;;-3276.00;80.90;;;;;;5059275;28;19912;-84
2022/03/05 05:54:58;;;;;;;;;;;-3276.10;80.20;;;;;;5058935;28;19955;-84
2022/03/05 05:57:23;;;;;;;;;;;-3276.10;80.20;;;;;;5076302;28;19912;-84
2022/03/05 05:59:49;;;;;;;;;;;-3276.10;80.10;;;;;;5061631;28;19912;-83
2022/03/05 06:02:14;;;;;;;;;;;-3276.20;79.90;;;;;;5061736;28;19939;-84
2022/03/05 06:04:40;;;;;;;;;;;-3276.00;80.20;;;;;;5058933;28;19917;-84
2022/03/05 06:07:05;;;;;;;;;;;-3276.00;80.40;;;;;;5059472;28;20642;-84
2022/03/05 06:09:31;;;;;;;;;;;-3276.00;80.20;;;;;;5065939;28;19909;-84
2022/03/05 06:11:56;;;;;;;;;;;-3276.00;80.50;;;;;;5078553;28;20002;-84
2022/03/05 06:14:22;;;;;;;;;;;-3275.90;80.30;;;;;;5062104;28;19960;-84
2022/03/05 06:16:47;;;;;;;;;;;-3275.80;80.50;;;;;;5058740;28;19992;-83
2022/03/05 06:19:13;;;;;;;;;;;-3275.90;80.30;;;;;;5074810;28;20056;-84
2022/03/05 06:21:38;;;;;;;;;;;-3275.90;80.50;;;;;;5064718;28;20301;-84
2022/03/05 06:24:04;;;;;;;;;;;-3276.00;79.90;;;;;;5074924;28;20282;-84
2022/03/05 06:26:31;;;;;;;;;;;-3276.00;79.80;;;;;;5074270;28;20338;-84
2022/03/05 06:28:57;;;;;;;;;;;-3276.00;79.70;;;;;;5086802;28;19912;-84
2022/03/05 06:31:23;;;;;;;;;;;-3275.90;79.40;;;;;;5085180;28;19996;-84
2022/03/05 06:33:48;;;;;;;;;;;-3275.90;80.10;;;;;;5070503;28;19912;-84
2022/03/05 06:36:14;;;;;;;;;;;-3275.90;80.10;;;;;;5069188;28;19964;-84
2022/03/05 06:38:39;;;;;;;;;;;-3276.00;80.20;;;;;;5075454;28;19912;-85
2022/03/05 06:41:05;;;;;;;;;;;-3275.90;80.30;;;;;;5090164;28;19912;-84
2022/03/05 06:43:30;;;;;;;;;;;-3275.90;80.70;;;;;;5071822;28;19919;-84
2022/03/05 06:45:56;;;;;;;;;;;-3276.00;80.50;;;;;;5080935;28;20405;-85
2022/03/05 06:48:22;;;;;;;;;;;-3276.00;80.50;;;;;;5072604;28;19971;-85
2022/03/05 06:50:47;;;;;;;;;;;-3276.00;80.50;;;;;;5079383;28;20003;-84
2022/03/05 06:53:13;;;;;;;;;;;-3276.00;80.90;;;;;;5073519;28;19920;-83
2022/03/05 06:55:38;;;;;;;;;;;-3276.10;81.00;;;;;;5068981;28;19916;-84
2022/03/05 06:58:03;;;;;;;;;;;-3276.10;80.90;;;;;;5077657;28;19987;-83
2022/03/05 07:00:29;;;;;;;;;;;-3276.10;80.90;;;;;;5086362;28;19913;-83
2022/03/05 07:02:55;;;;;;;;;;;-3276.10;80.80;;;;;;5081291;28;19955;-85
2022/03/05 07:05:20;;;;;;;;;;;-3276.20;80.80;;;;;;5067926;28;19952;-84
2022/03/05 07:07:45;;;;;;;;;;;-3276.30;80.40;;;;;;5075726;28;20385;-84
2022/03/05 07:10:11;;;;;;;;;;;-3276.20;81.00;;;;;;5081195;28;19915;-85
2022/03/05 07:12:37;;;;;;;;;;;-3276.40;80.90;;;;;;5080983;28;20071;-83
2022/03/05 07:15:02;;;;;;;;;;;-3276.50;80.70;;;;;;5083264;28;20363;-84
2022/03/05 07:17:28;;;;;;;;;;;-3276.50;80.40;;;;;;5078238;28;19920;-83
2022/03/05 07:19:55;;;;;;;;;;;-3276.50;80.00;;;;;;5082289;28;19959;-83
2022/03/05 07:22:21;;;;;;;;;;;-3276.50;80.30;;;;;;5080097;28;19916;-84
2022/03/05 07:24:46;;;;;;;;;;;-3276.60;80.20;;;;;;5061643;28;19931;-84
2022/03/05 07:27:12;;;;;;;;;;;-3276.60;80.30;;;;;;5064338;28;19952;-82
2022/03/05 07:29:37;;;;;;;;;;;-3276.70;80.20;;;;;;5080956;28;20456;-84
2022/03/05 07:32:03;;;;;;;;;;;0.00;79.90;;;;;;5072580;28;19920;-84
2022/03/05 07:34:32;;;;;;;;;;;0.00;79.90;;;;;;5075396;28;19920;-84
2022/03/05 07:36:57;;;;;;;;;;;-3276.60;79.90;;;;;;5073443;28;19912;-84
2022/03/05 07:39:23;;;;;;;;;;;-3276.60;80.50;;;;;;5072135;28;20005;-85
2022/03/05 07:41:49;;;;;;;;;;;-3276.50;81.00;;;;;;5086671;28;19912;-84
2022/03/05 07:44:14;;;;;;;;;;;-3276.60;81.30;;;;;;5060579;28;20409;-83
2022/03/05 07:46:40;;;;;;;;;;;-3276.70;81.40;;;;;;5081272;28;19912;-83
2022/03/05 07:49:05;;;;;;;;;;;-3276.70;80.90;;;;;;5078446;28;19921;-84
2022/03/05 07:51:31;;;;;;;;;;;-3276.70;81.00;;;;;;5068006;28;19913;-84
2022/03/05 07:53:57;;;;;;;;;;;-3276.70;81.20;;;;;;5070237;28;19917;-85
2022/03/05 07:56:23;;;;;;;;;;;-3276.70;81.10;;;;;;5081595;28;19915;-84
2022/03/05 07:58:48;;;;;;;;;;;0.00;81.10;;;;;;5070429;28;19940;-85
2022/03/05 08:01:14;;;;;;;;;;;0.00;80.80;;;;;;5082420;28;19908;-85
2022/03/05 08:03:39;;;;;;;;;;;0.10;80.50;;;;;;5082911;28;20005;-85
2022/03/05 08:06:05;;;;;;;;;;;0.10;80.60;;;;;;5077032;28;19927;-85
2022/03/05 08:08:30;;;;;;;;;;;0.20;80.40;;;;;;5063801;28;19909;-85
2022/03/05 08:10:56;;;;;;;;;;;0.30;80.60;;;;;;5077700;28;19916;-85
2022/03/05 08:13:21;;;;;;;;;;;0.40;80.10;;;;;;5074471;28;20332;-84
2022/03/05 08:15:47;;;;;;;;;;;0.50;80.20;;;;;;5058691;28;19917;-85
2022/03/05 08:18:13;;;;;;;;;;;0.50;79.80;;;;;;5068133;28;20276;-83
2022/03/05 08:20:38;;;;;;;;;;;0.70;79.50;;;;;;5064687;28;19916;-85
2022/03/05 08:23:04;;;;;;;;;;;0.80;79.40;;;;;;5068528;28;19916;-83
2022/03/05 08:25:30;;;;;;;;;;;0.90;79.00;;;;;;5067128;28;19911;-82
2022/03/05 08:27:56;;;;;;;;;;;0.90;79.00;;;;;;5083502;28;19962;-81
2022/03/05 08:30:21;;;;;;;;;;;1.10;79.20;;;;;;5075986;28;20264;-82
2022/03/05 08:32:47;;;;;;;;;;;1.20;79.00;;;;;;5077623;28;19915;-82
2022/03/05 08:35:13;;;;;;;;;;;1.30;77.70;;;;;;5073365;28;19931;-81
2022/03/05 08:37:39;;;;;;;;;;;1.30;77.30;;;;;;5075151;28;19935;-82
2022/03/05 08:40:06;;;;;;;;;;;1.50;77.60;;;;;;5078218;28;19923;-81
2022/03/05 08:42:31;;;;;;;;;;;1.60;76.20;;;;;;5083226;28;19916;-81
2022/03/05 08:44:57;;;;;;;;;;;1.60;76.20;;;;;;5068040;28;19916;-81
2022/03/05 08:47:22;;;;;;;;;;;1.70;77.00;;;;;;5062528;28;19913;-80
2022/03/05 08:49:47;;;;;;;;;;;1.70;75.90;;;;;;5071072;28;19988;-80
2022/03/05 08:52:13;;;;;;;;;;;1.80;76.10;;;;;;5071616;28;19908;-80
2022/03/05 08:54:38;;;;;;;;;;;1.90;76.10;;;;;;5062788;28;20317;-81
2022/03/05 08:57:04;;;;;;;;;;;2.00;75.80;;;;;;5077937;28;19912;-81
2022/03/05 08:59:30;;;;;;;;;;;2.00;75.70;;;;;;5078705;28;19912;-81
2022/03/05 09:01:55;;;;;;;;;;;2.10;75.10;;;;;;5079128;28;19939;-80
2022/03/05 09:04:21;;;;;;;;;;;2.20;74.90;;;;;;5073226;28;19912;-81
2022/03/05 09:06:47;;;;;;;;;;;2.30;74.00;;;;;;5081501;28;19971;-80
2022/03/05 09:09:12;;;;;;;;;;;2.40;74.40;;;;;;5077804;28;19919;-81
2022/03/05 09:11:39;;;;;;;;;;;2.50;74.20;;;;;;5062769;28;19999;-81
2022/03/05 09:14:07;;;;;;;;;;;2.60;73.30;;;;;;5062277;28;20346;-81
2022/03/05 09:16:36;;;;;;;;;;;2.60;72.40;;;;;;5074892;28;19936;-80
2022/03/05 09:19:02;;;;;;;;;;;2.60;72.00;;;;;;5070296;28;19916;-79
2022/03/05 09:21:27;;;;;;;;;;;2.70;72.00;;;;;;5055173;28;19917;-79
2022/03/05 09:23:53;;;;;;;;;;;2.80;71.70;;;;;;5060943;28;20011;-80
2022/03/05 09:26:18;;;;;;;;;;;2.90;71.80;;;;;;5064019;28;19920;-80
2022/03/05 09:28:44;;;;;;;;;;;3.00;71.30;;;;;;5053651;28;20004;-80
2022/03/05 09:31:10;;;;;;;;;;;3.10;72.00;;;;;;5053638;28;19925;-82
2022/03/05 09:33:35;;;;;;;;;;;3.10;71.50;;;;;;5062837;28;19913;-81
2022/03/05 09:36:01;;;;;;;;;;;3.20;71.20;;;;;;5084609;28;19932;-80
2022/03/05 09:38:26;;;;;;;;;;;3.30;70.30;;;;;;5097176;28;19916;-80
2022/03/05 09:40:53;;;;;;;;;;;3.50;69.30;;;;;;5083351;28;19913;-82
2022/03/05 09:43:18;;;;;;;;;;;3.50;68.70;;;;;;5073761;28;19917;-80
2022/03/05 09:45:44;;;;;;;;;;;3.60;68.90;;;;;;5095393;28;19970;-81
2022/03/05 09:48:11;;;;;;;;;;;3.80;68.80;;;;;;5075052;28;19921;-81
2022/03/05 09:50:37;;;;;;;;;;;4.00;68.30;;;;;;5056293;28;19916;-81
2022/03/05 09:53:03;;;;;;;;;;;4.00;68.60;;;;;;5054378;28;19916;-83
2022/03/05 09:55:29;;;;;;;;;;;4.10;68.70;;;;;;5062933;28;19916;-85
2022/03/05 09:57:55;;;;;;;;;;;4.30;67.30;;;;;;5064251;28;19913;-83
2022/03/05 10:00:20;;;;;;;;;;;4.40;66.00;;;;;;5062954;28;19920;-83
2022/03/05 10:02:47;;;;;;;;;;;4.50;64.60;;;;;;5080134;28;19916;-83
2022/03/05 10:05:13;;;;;;;;;;;4.60;64.00;;;;;;5078116;28;19995;-82
2022/03/05 10:07:38;;;;;;;;;;;4.70;63.30;;;;;;5061909;28;19912;-82
2022/03/05 10:10:08;;;;;;;;;;;4.80;62.80;;;;;;5057033;28;20291;-82
2022/03/05 10:12:34;;;;;;;;;;;5.00;62.30;;;;;;5069661;28;20391;-82
2022/03/05 10:15:02;;;;;;;;;;;5.10;60.20;;;;;;5054217;28;19917;-82
2022/03/05 10:17:28;;;;;;;;;;;5.10;60.20;;;;;;5059320;28;20001;-82
2022/03/05 10:20:04;;;;;;;;;;;5.20;61.00;;;;;;5054156;28;19913;-81
2022/03/05 10:22:29;;;;;;;;;;;5.10;61.30;;;;;;5072255;28;19921;-81
2022/03/05 10:24:55;;;;;;;;;;;5.20;61.00;;;;;;5087163;28;19932;-82
2022/03/05 10:27:20;;;;;;;;;;;5.40;59.80;;;;;;5077896;28;19952;-82
2022/03/05 10:29:46;;;;;;;;;;;5.40;59.40;;;;;;5061050;28;19917;-82
2022/03/05 10:32:12;;;;;;;;;;;5.50;58.60;;;;;;5066069;28;19939;-79
2022/03/05 10:34:52;;;;;;;;;;;5.60;59.30;;;;;;5057852;28;19920;-82
2022/03/05 10:37:18;;;;;;;;;;;5.60;58.60;;;;;;5068804;28;20004;-82
2022/03/05 10:39:45;;;;;;;;;;;5.50;58.00;;;;;;5070064;28;19913;-82
2022/03/05 10:42:19;;;;;;;;;;;5.50;58.80;;;;;;5081214;28;19920;-85
2022/03/05 10:44:58;;;;;;;;;;;5.60;58.60;;;;;;5061378;28;19924;-84
2022/03/05 10:47:24;;;;;;;;;;;5.70;58.20;;;;;;5063337;28;19958;-84
2022/03/05 10:49:49;;;;;;;;;;;5.90;57.50;;;;;;5066398;28;19913;-84
2022/03/05 10:52:15;;;;;;;;;;;6.00;57.10;;;;;;5056552;28;19908;-84
2022/03/05 10:54:42;;;;;;;;;;;6.00;57.40;;;;;;5070859;28;19912;-84
2022/03/05 10:57:18;;;;;;;;;;;6.00;57.50;;;;;;5069994;28;19920;-83
2022/03/05 10:59:45;;;;;;;;;;;6.00;57.10;;;;;;5058518;28;19919;-84
2022/03/05 11:02:11;;;;;;;;;;;6.10;56.20;;;;;;5069935;28;20367;-83
2022/03/05 11:04:37;;;;;;;;;;;6.20;56.10;;;;;;5074812;28;19927;-84
2022/03/05 11:07:04;;;;;;;;;;;6.30;54.50;;;;;;5082507;28;20015;-82
2022/03/05 11:09:30;;;;;;;;;;;6.50;54.60;;;;;;5082944;28;19927;-84
2022/03/05 11:11:57;;;;;;;;;;;6.60;53.10;;;;;;5081345;28;19913;-83
2022/03/05 11:14:23;;;;;;;;;;;6.60;53.20;;;;;;5061303;28;19913;-84
2022/03/05 11:16:48;;;;;;;;;;;6.70;53.40;;;;;;5063117;28;19956;-83
2022/03/05 11:19:14;;;;;;;;;;;6.90;52.90;;;;;;5074578;28;19908;-83
2022/03/05 11:21:39;;;;;;;;;;;7.00;53.90;;;;;;5063349;28;19916;-84
2022/03/05 11:24:05;;;;;;;;;;;6.80;52.90;;;;;;5089669;28;19923;-85
2022/03/05 11:26:31;;;;;;;;;;;6.80;52.30;;;;;;5088765;28;20042;-84
2022/03/05 11:28:58;;;;;;;;;;;7.00;51.40;;;;;;5069545;28;19916;-85
2022/03/05 11:31:24;;;;;;;;;;;7.00;50.20;;;;;;5088415;28;20007;-84
2022/03/05 11:33:50;;;;;;;;;;;7.10;49.60;;;;;;5077276;28;19912;-85
2022/03/05 11:36:22;;;;;;;;;;;6.90;49.50;;;;;;5062957;28;19913;-85
2022/03/05 11:38:47;;;;;;;;;;;7.00;49.30;;;;;;5061621;28;19919;-83
2022/03/05 11:41:19;;;;;;;;;;;7.00;49.30;;;;;;5067076;28;19913;-82
2022/03/05 11:43:49;;;;;;;;;;;6.90;50.60;;;;;;5079761;28;20060;-81
2022/03/05 11:46:22;;;;;;;;;;;7.00;50.20;;;;;;5085087;28;19917;-83
2022/03/05 11:49:04;;;;;;;;;;;7.10;49.40;;;;;;5077524;28;19927;-82
2022/03/05 11:51:29;;;;;;;;;;;7.50;48.10;;;;;;5082335;28;19968;-83
2022/03/05 11:54:07;;;;;;;;;;;7.60;47.10;;;;;;5069795;28;19919;-82
2022/03/05 11:56:35;;;;;;;;;;;7.50;45.00;;;;;;5090422;28;19964;-82
2022/03/05 11:59:19;;;;;;;;;;;7.30;44.10;;;;;;5079586;28;19928;-85
2022/03/05 12:01:50;;;;;;;;;;;7.30;46.20;;;;;;5084141;28;19940;-82
2022/03/05 12:04:16;;;;;;;;;;;7.20;44.70;;;;;;5087487;28;20011;-83
2022/03/05 12:06:44;;;;;;;;;;;7.20;44.30;;;;;;5074383;28;19966;-81
2022/03/05 12:09:29;;;;;;;;;;;7.40;47.80;;;;;;5071799;28;20018;-79
2022/03/05 12:11:55;;;;;;;;;;;7.60;46.30;;;;;;5079991;28;20011;-81
2022/03/05 12:14:20;;;;;;;;;;;7.70;45.60;;;;;;5065095;28;20345;-83
2022/03/05 12:16:47;;;;;;;;;;;7.60;45.40;;;;;;5067891;28;20387;-81
2022/03/05 12:19:14;;;;;;;;;;;7.50;44.80;;;;;;5069097;28;19913;-81
2022/03/05 12:21:40;;;;;;;;;;;7.50;43.70;;;;;;5039352;22;19975;-80
2022/03/05 12:24:08;;;;;;;;;;;7.50;43.00;;;;;;5066580;28;19980;-81
2022/03/05 12:26:34;;;;;;;;;;;7.30;44.30;;;;;;5032790;28;20304;-81
2022/03/05 12:28:59;;;;;;;;;;;7.40;45.60;;;;;;5059689;28;19932;-81
2022/03/05 12:31:25;;;;;;;;;;;7.60;45.10;;;;;;5039970;28;19920;-80
2022/03/05 12:33:51;;;;;;;;;;;7.50;44.10;;;;;;5064820;28;19970;-81
2022/03/05 12:36:17;;;;;;;;;;;7.50;43.90;;;;;;5059990;28;19920;-80
2022/03/05 12:38:43;;;;;;;;;;;7.50;43.20;;;;;;5059715;28;19917;-80
2022/03/05 12:41:09;;;;;;;;;;;7.60;43.40;;;;;;5035051;28;19931;-80
2022/03/05 12:43:35;;;;;;;;;;;7.60;44.40;;;;;;5049958;28;19921;-79
2022/03/05 12:46:00;;;;;;;;;;;7.80;44.40;;;;;;5033640;28;19917;-78
2022/03/05 12:48:26;;;;;;;;;;;7.80;44.80;;;;;;5051317;28;19921;-79
2022/03/05 12:50:54;;;;;;;;;;;7.70;43.20;;;;;;5053257;28;19956;-79
2022/03/05 12:53:20;;;;;;;;;;;7.80;44.10;;;;;;5037204;28;20437;-79
2022/03/05 12:55:50;;;;;;;;;;;7.80;44.10;;;;;;5036582;28;20020;-80
2022/03/05 12:58:25;;;;;;;;;;;7.70;43.30;;;;;;5062951;28;19912;-81
2022/03/05 13:00:52;;;;;;;;;;;7.70;43.70;;;;;;5039067;28;19909;-80
2022/03/05 13:03:18;;;;;;;;;;;7.70;42.30;;;;;;5040897;28;19920;-80
2022/03/05 13:05:46;;;;;;;;;;;7.80;42.50;;;;;;5060526;28;19916;-80
2022/03/05 13:08:15;;;;;;;;;;;8.00;41.70;;;;;;5036513;28;19913;-81
2022/03/05 13:10:41;;;;;;;;;;;8.00;41.50;;;;;;5060782;28;19924;-81
2022/03/05 13:13:07;;;;;;;;;;;7.90;41.40;;;;;;5041933;28;19909;-80
2022/03/05 13:15:33;;;;;;;;;;;7.90;43.30;;;;;;5038341;28;19920;-80
2022/03/05 13:18:06;;;;;;;;;;;7.90;42.10;;;;;;5049708;28;19921;-80
2022/03/05 13:20:31;;;;;;;;;;;8.10;41.20;;;;;;5049324;28;20279;-80
2022/03/05 13:22:57;;;;;;;;;;;8.10;40.60;;;;;;5051096;28;19916;-81
2022/03/05 13:25:23;;;;;;;;;;;8.10;42.20;;;;;;5032526;28;20248;-80
2022/03/05 13:27:48;;;;;;;;;;;8.20;42.90;;;;;;5038600;28;19967;-79
2022/03/05 13:30:17;;;;;;;;;;;8.20;42.00;;;;;;5054838;28;20058;-81
2022/03/05 13:32:44;;;;;;;;;;;8.20;40.40;;;;;;5036601;28;19917;-80
2022/03/05 13:35:09;;;;;;;;;;;8.20;40.60;;;;;;5048937;28;19962;-81
2022/03/05 13:37:38;;;;;;;;;;;8.20;39.50;;;;;;5029467;28;20012;-81
2022/03/05 13:40:05;;;;;;;;;;;8.10;40.90;;;;;;5049206;28;19909;-81
2022/03/05 13:42:32;;;;;;;;;;;8.20;40.00;;;;;;5051369;28;19901;-81
2022/03/05 13:44:59;;;;;;;;;;;8.20;39.80;;;;;;5053750;28;19939;-80
2022/03/05 13:47:25;;;;;;;;;;;8.30;40.70;;;;;;5035942;28;19952;-81
2022/03/05 13:49:50;;;;;;;;;;;8.30;40.40;;;;;;5048953;28;20388;-81
2022/03/05 13:52:17;;;;;;;;;;;8.20;40.80;;;;;;5044082;28;19972;-81
2022/03/05 13:54:44;;;;;;;;;;;8.30;41.80;;;;;;5063693;28;19932;-81
2022/03/05 13:57:12;;;;;;;;;;;8.40;40.70;;;;;;5050138;28;19942;-79
2022/03/05 13:59:45;;;;;;;;;;;8.30;40.30;;;;;;5067853;28;19972;-80
2022/03/05 14:02:12;;;;;;;;;;;8.20;38.80;;;;;;5052414;28;19971;-80
2022/03/05 14:04:53;;;;;;;;;;;8.20;41.40;;;;;;5072607;28;19921;-80
2022/03/05 14:07:19;;;;;;;;;;;8.30;40.50;;;;;;5054160;28;19920;-81
2022/03/05 14:09:45;;;;;;;;;;;8.40;39.40;;;;;;5045510;28;19944;-81